Albatros — DITX — position and weather

sailwx.info

Track history (hours):
 
Tides and Currents Weather Stations Pressure Air Temp Water Temp Dewpoint Dewpoint Depression Visibility Wind Speed Wind Dir Waves Ship Positions

Albatros

Last reported at 2014-Jul-10 11:33 UTC. Time now 2014-Jul-31 15:40 UTC.
Position N 54°22' E 012°44'.
Warning: this ship's position is 21 days out of date.

Length 16 m.

MMSI: 211226200.

Date/timePositionNaut miles runAvg speedWind from/ knotsBaromVisibWave heightAir tempDewpointWater temp
2014-Jul-10 11:33N 54°22' E 012°44'5 4.9
2014-Jul-10 10:33N 54°24' E 012°52'6 6.2
2014-Jul-10 09:33N 54°26' E 013°02'3 2.6
2014-Jul-10 08:33N 54°26' E 013°06'5 5.0
2014-Jul-10 07:33N 54°31' E 013°10'1 0.6
2014-Jul-10 06:33N 54°31' E 013°09'1 0.0
2014-Jul-09 15:32N 54°31' E 013°10'0 0.0
2014-Jul-09 14:33N 54°31' E 013°10'0 0.0
2014-Jul-09 13:33N 54°31' E 013°10'  
Track history (hours):
 
Tides and Currents Weather Stations Pressure Air Temp Water Temp Dewpoint Dewpoint Depression Visibility Wind Speed Wind Dir Waves Ship Positions

Albatros

Last reported at 2014-Jul-10 11:33 UTC. Time now 2014-Jul-31 15:40 UTC.
Position N 54°22' E 012°44'.
Warning: this ship's position is 21 days out of date.

Length 16 m.

MMSI: 211226200.

Date/timePositionNaut miles runAvg speedWind from/ knotsBaromVisibWave heightAir tempDewpointWater temp
2014-Jul-10 11:33N 54°22' E 012°44'5 4.9
2014-Jul-10 10:33N 54°24' E 012°52'6 6.2
2014-Jul-10 09:33N 54°26' E 013°02'3 2.6
2014-Jul-10 08:33N 54°26' E 013°06'5 5.0
2014-Jul-10 07:33N 54°31' E 013°10'1 0.6
2014-Jul-10 06:33N 54°31' E 013°09'1 0.0
2014-Jul-09 15:32N 54°31' E 013°10'0 0.0
2014-Jul-09 14:33N 54°31' E 013°10'0 0.0
2014-Jul-09 13:33N 54°31' E 013°10'  

Dump ship's entire track history